sensor_id;sensor_type;location;lat;lon;timestamp;temperature;humidity
21734;DHT22;11029;47.820;10.534;2023-06-22T00:01:20;19.70;69.50
21734;DHT22;11029;47.820;10.534;2023-06-22T00:03:49;19.60;70.20
21734;DHT22;11029;47.820;10.534;2023-06-22T00:06:16;19.50;69.20
21734;DHT22;11029;47.820;10.534;2023-06-22T00:08:43;19.40;69.90
21734;DHT22;11029;47.820;10.534;2023-06-22T00:11:10;19.10;70.60
21734;DHT22;11029;47.820;10.534;2023-06-22T00:13:37;19.10;70.20
21734;DHT22;11029;47.820;10.534;2023-06-22T00:16:04;19.20;70.10
21734;DHT22;11029;47.820;10.534;2023-06-22T00:18:31;19.20;70.20
21734;DHT22;11029;47.820;10.534;2023-06-22T00:20:59;19.30;70.00
21734;DHT22;11029;47.820;10.534;2023-06-22T00:23:26;19.30;70.10
21734;DHT22;11029;47.820;10.534;2023-06-22T00:25:53;19.40;69.80
21734;DHT22;11029;47.820;10.534;2023-06-22T00:28:20;19.40;69.90
21734;DHT22;11029;47.820;10.534;2023-06-22T00:30:48;19.20;69.80
21734;DHT22;11029;47.820;10.534;2023-06-22T00:33:15;18.60;71.90
21734;DHT22;11029;47.820;10.534;2023-06-22T00:35:43;18.50;72.50
21734;DHT22;11029;47.820;10.534;2023-06-22T00:38:09;18.70;72.00
21734;DHT22;11029;47.820;10.534;2023-06-22T00:40:36;18.70;71.60
21734;DHT22;11029;47.820;10.534;2023-06-22T00:43:05;18.80;71.80
21734;DHT22;11029;47.820;10.534;2023-06-22T00:45:32;18.80;71.30
21734;DHT22;11029;47.820;10.534;2023-06-22T00:47:59;18.80;71.10
21734;DHT22;11029;47.820;10.534;2023-06-22T00:50:28;18.60;72.20
21734;DHT22;11029;47.820;10.534;2023-06-22T00:53:06;18.50;71.90
21734;DHT22;11029;47.820;10.534;2023-06-22T00:55:36;18.60;71.10
21734;DHT22;11029;47.820;10.534;2023-06-22T00:58:08;18.50;71.50
21734;DHT22;11029;47.820;10.534;2023-06-22T01:00:38;18.50;71.60
21734;DHT22;11029;47.820;10.534;2023-06-22T01:03:06;18.30;71.90
21734;DHT22;11029;47.820;10.534;2023-06-22T01:05:37;18.30;72.20
21734;DHT22;11029;47.820;10.534;2023-06-22T01:08:25;18.40;72.50
21734;DHT22;11029;47.820;10.534;2023-06-22T01:14:00;18.70;71.50
21734;DHT22;11029;47.820;10.534;2023-06-22T01:16:30;18.70;70.70
21734;DHT22;11029;47.820;10.534;2023-06-22T01:19:03;18.70;70.00
21734;DHT22;11029;47.820;10.534;2023-06-22T01:21:33;18.60;70.30
21734;DHT22;11029;47.820;10.534;2023-06-22T01:24:18;18.50;70.40
21734;DHT22;11029;47.820;10.534;2023-06-22T01:29:36;18.40;70.80
21734;DHT22;11029;47.820;10.534;2023-06-22T01:32:06;18.40;71.30
21734;DHT22;11029;47.820;10.534;2023-06-22T01:34:36;18.30;71.30
21734;DHT22;11029;47.820;10.534;2023-06-22T01:37:04;18.20;71.60
21734;DHT22;11029;47.820;10.534;2023-06-22T01:39:31;18.20;71.60
21734;DHT22;11029;47.820;10.534;2023-06-22T01:41:59;18.10;71.50
21734;DHT22;11029;47.820;10.534;2023-06-22T01:44:27;18.10;71.50
21734;DHT22;11029;47.820;10.534;2023-06-22T01:46:54;18.10;71.60
21734;DHT22;11029;47.820;10.534;2023-06-22T01:49:22;18.10;71.40
21734;DHT22;11029;47.820;10.534;2023-06-22T01:51:49;18.10;71.50
21734;DHT22;11029;47.820;10.534;2023-06-22T01:54:15;18.00;71.90
21734;DHT22;11029;47.820;10.534;2023-06-22T01:56:42;17.80;72.90
21734;DHT22;11029;47.820;10.534;2023-06-22T01:59:45;17.80;72.10
21734;DHT22;11029;47.820;10.534;2023-06-22T02:02:11;17.80;70.80
21734;DHT22;11029;47.820;10.534;2023-06-22T02:04:52;17.80;71.00
21734;DHT22;11029;47.820;10.534;2023-06-22T02:07:23;17.80;71.20
21734;DHT22;11029;47.820;10.534;2023-06-22T02:09:52;17.70;71.80
21734;DHT22;11029;47.820;10.534;2023-06-22T02:12:23;17.60;71.70
21734;DHT22;11029;47.820;10.534;2023-06-22T02:14:52;17.50;71.30
21734;DHT22;11029;47.820;10.534;2023-06-22T02:17:19;17.50;71.50
21734;DHT22;11029;47.820;10.534;2023-06-22T02:19:46;17.50;71.90
21734;DHT22;11029;47.820;10.534;2023-06-22T02:22:13;17.50;71.90
21734;DHT22;11029;47.820;10.534;2023-06-22T02:24:42;17.40;72.00
21734;DHT22;11029;47.820;10.534;2023-06-22T02:27:09;17.20;72.20
21734;DHT22;11029;47.820;10.534;2023-06-22T02:29:36;17.20;72.50
21734;DHT22;11029;47.820;10.534;2023-06-22T02:32:04;17.20;72.40
21734;DHT22;11029;47.820;10.534;2023-06-22T02:34:31;17.10;72.30
21734;DHT22;11029;47.820;10.534;2023-06-22T02:37:00;17.10;72.80
21734;DHT22;11029;47.820;10.534;2023-06-22T02:39:27;17.10;72.90
21734;DHT22;11029;47.820;10.534;2023-06-22T02:41:54;17.20;72.60
21734;DHT22;11029;47.820;10.534;2023-06-22T02:44:22;17.10;72.90
21734;DHT22;11029;47.820;10.534;2023-06-22T02:46:49;17.10;72.90
21734;DHT22;11029;47.820;10.534;2023-06-22T02:49:16;17.00;72.90
21734;DHT22;11029;47.820;10.534;2023-06-22T02:51:46;17.10;73.40
21734;DHT22;11029;47.820;10.534;2023-06-22T02:54:16;17.10;73.20
21734;DHT22;11029;47.820;10.534;2023-06-22T02:56:44;17.20;72.40
21734;DHT22;11029;47.820;10.534;2023-06-22T02:59:11;17.10;72.00
21734;DHT22;11029;47.820;10.534;2023-06-22T03:01:38;16.90;73.30
21734;DHT22;11029;47.820;10.534;2023-06-22T03:04:16;17.00;72.80
21734;DHT22;11029;47.820;10.534;2023-06-22T03:06:43;17.00;71.90
21734;DHT22;11029;47.820;10.534;2023-06-22T03:09:10;17.00;71.90
21734;DHT22;11029;47.820;10.534;2023-06-22T03:11:37;16.90;72.60
21734;DHT22;11029;47.820;10.534;2023-06-22T03:14:04;16.90;72.80
21734;DHT22;11029;47.820;10.534;2023-06-22T03:16:30;16.80;73.20
21734;DHT22;11029;47.820;10.534;2023-06-22T03:18:58;16.90;72.40
21734;DHT22;11029;47.820;10.534;2023-06-22T03:21:28;16.80;72.70
21734;DHT22;11029;47.820;10.534;2023-06-22T03:23:55;16.80;73.00
21734;DHT22;11029;47.820;10.534;2023-06-22T03:26:22;16.80;72.90
21734;DHT22;11029;47.820;10.534;2023-06-22T03:28:50;16.70;72.70
21734;DHT22;11029;47.820;10.534;2023-06-22T03:31:17;16.70;72.50
21734;DHT22;11029;47.820;10.534;2023-06-22T03:33:49;16.80;71.90
21734;DHT22;11029;47.820;10.534;2023-06-22T03:36:17;16.80;72.20
21734;DHT22;11029;47.820;10.534;2023-06-22T03:38:48;16.80;73.10
21734;DHT22;11029;47.820;10.534;2023-06-22T03:41:15;16.70;72.80
21734;DHT22;11029;47.820;10.534;2023-06-22T03:43:42;16.80;72.40
21734;DHT22;11029;47.820;10.534;2023-06-22T03:46:09;16.80;72.70
21734;DHT22;11029;47.820;10.534;2023-06-22T03:48:36;16.80;72.30
21734;DHT22;11029;47.820;10.534;2023-06-22T03:51:04;16.90;71.80
21734;DHT22;11029;47.820;10.534;2023-06-22T03:53:31;16.90;71.60
21734;DHT22;11029;47.820;10.534;2023-06-22T03:55:58;16.90;71.20
21734;DHT22;11029;47.820;10.534;2023-06-22T03:58:24;16.90;71.70
21734;DHT22;11029;47.820;10.534;2023-06-22T04:00:52;16.90;71.60
21734;DHT22;11029;47.820;10.534;2023-06-22T04:03:19;16.90;71.90
21734;DHT22;11029;47.820;10.534;2023-06-22T04:05:47;17.10;71.80
21734;DHT22;11029;47.820;10.534;2023-06-22T04:08:15;17.10;71.50
21734;DHT22;11029;47.820;10.534;2023-06-22T04:10:43;17.20;71.80
21734;DHT22;11029;47.820;10.534;2023-06-22T04:13:10;17.20;71.80
21734;DHT22;11029;47.820;10.534;2023-06-22T04:15:37;17.20;71.70
21734;DHT22;11029;47.820;10.534;2023-06-22T04:18:03;17.30;71.80
21734;DHT22;11029;47.820;10.534;2023-06-22T04:20:31;17.30;71.70
21734;DHT22;11029;47.820;10.534;2023-06-22T04:22:59;17.40;72.00
21734;DHT22;11029;47.820;10.534;2023-06-22T04:25:26;17.40;72.20
21734;DHT22;11029;47.820;10.534;2023-06-22T04:27:53;17.50;71.90
21734;DHT22;11029;47.820;10.534;2023-06-22T04:30:19;17.50;71.50
21734;DHT22;11029;47.820;10.534;2023-06-22T04:32:46;17.50;71.90
21734;DHT22;11029;47.820;10.534;2023-06-22T04:35:26;17.60;71.90
21734;DHT22;11029;47.820;10.534;2023-06-22T04:37:53;17.60;72.50
21734;DHT22;11029;47.820;10.534;2023-06-22T04:40:25;17.70;72.40
21734;DHT22;11029;47.820;10.534;2023-06-22T04:42:52;17.60;73.10
21734;DHT22;11029;47.820;10.534;2023-06-22T04:45:20;17.50;73.40
21734;DHT22;11029;47.820;10.534;2023-06-22T04:47:47;17.60;73.50
21734;DHT22;11029;47.820;10.534;2023-06-22T04:50:15;17.70;73.50
21734;DHT22;11029;47.820;10.534;2023-06-22T04:52:41;17.70;73.20
21734;DHT22;11029;47.820;10.534;2023-06-22T04:55:08;17.80;72.90
21734;DHT22;11029;47.820;10.534;2023-06-22T04:57:35;17.90;72.70
21734;DHT22;11029;47.820;10.534;2023-06-22T05:00:06;18.10;72.70
21734;DHT22;11029;47.820;10.534;2023-06-22T05:02:39;18.10;72.60
21734;DHT22;11029;47.820;10.534;2023-06-22T05:05:07;18.20;72.50
21734;DHT22;11029;47.820;10.534;2023-06-22T05:07:34;18.20;72.40
21734;DHT22;11029;47.820;10.534;2023-06-22T05:10:02;18.20;72.70
21734;DHT22;11029;47.820;10.534;2023-06-22T05:12:30;18.40;72.60
21734;DHT22;11029;47.820;10.534;2023-06-22T05:14:57;18.40;72.60
21734;DHT22;11029;47.820;10.534;2023-06-22T05:17:24;18.40;72.50
21734;DHT22;11029;47.820;10.534;2023-06-22T05:19:51;18.50;72.30
21734;DHT22;11029;47.820;10.534;2023-06-22T05:22:18;18.60;72.60
21734;DHT22;11029;47.820;10.534;2023-06-22T05:24:45;18.80;72.20
21734;DHT22;11029;47.820;10.534;2023-06-22T05:27:13;18.80;71.90
21734;DHT22;11029;47.820;10.534;2023-06-22T05:29:40;18.80;72.80
21734;DHT22;11029;47.820;10.534;2023-06-22T05:32:07;18.90;72.70
21734;DHT22;11029;47.820;10.534;2023-06-22T05:34:33;19.20;72.30
21734;DHT22;11029;47.820;10.534;2023-06-22T05:37:00;19.30;71.50
21734;DHT22;11029;47.820;10.534;2023-06-22T05:39:27;19.40;71.40
21734;DHT22;11029;47.820;10.534;2023-06-22T05:41:54;19.60;71.10
21734;DHT22;11029;47.820;10.534;2023-06-22T05:44:20;19.90;70.60
21734;DHT22;11029;47.820;10.534;2023-06-22T05:46:47;20.00;70.10
21734;DHT22;11029;47.820;10.534;2023-06-22T05:49:15;20.10;69.60
21734;DHT22;11029;47.820;10.534;2023-06-22T05:51:42;19.90;70.40
21734;DHT22;11029;47.820;10.534;2023-06-22T05:54:09;20.00;70.80
21734;DHT22;11029;47.820;10.534;2023-06-22T05:56:36;20.20;70.30
21734;DHT22;11029;47.820;10.534;2023-06-22T05:59:04;20.20;69.50
21734;DHT22;11029;47.820;10.534;2023-06-22T06:01:30;20.20;70.20
21734;DHT22;11029;47.820;10.534;2023-06-22T06:04:03;20.30;70.10
21734;DHT22;11029;47.820;10.534;2023-06-22T06:06:35;20.40;70.10
21734;DHT22;11029;47.820;10.534;2023-06-22T06:09:04;20.50;69.70
21734;DHT22;11029;47.820;10.534;2023-06-22T06:11:31;20.40;70.50
21734;DHT22;11029;47.820;10.534;2023-06-22T06:13:58;20.60;70.30
21734;DHT22;11029;47.820;10.534;2023-06-22T06:16:25;20.70;69.90
21734;DHT22;11029;47.820;10.534;2023-06-22T06:18:51;20.70;70.20
21734;DHT22;11029;47.820;10.534;2023-06-22T06:21:20;20.70;70.90
21734;DHT22;11029;47.820;10.534;2023-06-22T06:23:47;20.60;71.50
21734;DHT22;11029;47.820;10.534;2023-06-22T06:26:14;20.90;70.70
21734;DHT22;11029;47.820;10.534;2023-06-22T06:28:43;20.90;70.70
21734;DHT22;11029;47.820;10.534;2023-06-22T06:31:10;21.10;70.30
21734;DHT22;11029;47.820;10.534;2023-06-22T06:33:38;21.30;69.90
21734;DHT22;11029;47.820;10.534;2023-06-22T06:36:05;21.50;69.30
21734;DHT22;11029;47.820;10.534;2023-06-22T06:38:32;21.70;68.40
21734;DHT22;11029;47.820;10.534;2023-06-22T06:40:59;21.80;67.70
21734;DHT22;11029;47.820;10.534;2023-06-22T06:43:26;21.90;67.40
21734;DHT22;11029;47.820;10.534;2023-06-22T06:45:53;21.90;67.60
21734;DHT22;11029;47.820;10.534;2023-06-22T06:48:20;22.00;66.70
21734;DHT22;11029;47.820;10.534;2023-06-22T06:50:47;22.20;65.90
21734;DHT22;11029;47.820;10.534;2023-06-22T06:53:13;22.30;64.70
21734;DHT22;11029;47.820;10.534;2023-06-22T06:55:40;22.50;63.60
21734;DHT22;11029;47.820;10.534;2023-06-22T06:58:07;22.60;63.10
21734;DHT22;11029;47.820;10.534;2023-06-22T07:00:36;22.60;62.70
21734;DHT22;11029;47.820;10.534;2023-06-22T07:03:03;22.80;62.40
21734;DHT22;11029;47.820;10.534;2023-06-22T07:05:30;22.90;62.00
21734;DHT22;11029;47.820;10.534;2023-06-22T07:07:57;23.10;62.00
21734;DHT22;11029;47.820;10.534;2023-06-22T07:10:24;23.10;61.70
21734;DHT22;11029;47.820;10.534;2023-06-22T07:12:51;23.30;60.80
21734;DHT22;11029;47.820;10.534;2023-06-22T07:15:18;23.40;60.50
21734;DHT22;11029;47.820;10.534;2023-06-22T07:17:45;23.40;59.80
21734;DHT22;11029;47.820;10.534;2023-06-22T07:20:12;23.50;60.60
21734;DHT22;11029;47.820;10.534;2023-06-22T07:22:40;23.50;60.20
21734;DHT22;11029;47.820;10.534;2023-06-22T07:25:07;23.50;60.00
21734;DHT22;11029;47.820;10.534;2023-06-22T07:27:46;23.50;59.90
21734;DHT22;11029;47.820;10.534;2023-06-22T07:30:22;23.60;60.60
21734;DHT22;11029;47.820;10.534;2023-06-22T07:32:49;23.60;60.20
21734;DHT22;11029;47.820;10.534;2023-06-22T07:35:16;23.60;59.40
21734;DHT22;11029;47.820;10.534;2023-06-22T07:37:44;23.70;59.50
21734;DHT22;11029;47.820;10.534;2023-06-22T07:40:11;23.70;59.30
21734;DHT22;11029;47.820;10.534;2023-06-22T07:42:38;23.80;59.40
21734;DHT22;11029;47.820;10.534;2023-06-22T07:45:06;23.90;59.20
21734;DHT22;11029;47.820;10.534;2023-06-22T07:47:35;23.90;59.30
21734;DHT22;11029;47.820;10.534;2023-06-22T07:50:03;24.10;59.80
21734;DHT22;11029;47.820;10.534;2023-06-22T07:52:30;24.20;59.50
21734;DHT22;11029;47.820;10.534;2023-06-22T07:54:58;24.30;58.50
21734;DHT22;11029;47.820;10.534;2023-06-22T07:57:24;24.40;58.10
21734;DHT22;11029;47.820;10.534;2023-06-22T08:00:02;24.50;56.50
21734;DHT22;11029;47.820;10.534;2023-06-22T08:02:38;24.60;57.00
21734;DHT22;11029;47.820;10.534;2023-06-22T08:05:05;24.70;57.00
21734;DHT22;11029;47.820;10.534;2023-06-22T08:07:54;24.80;56.90
21734;DHT22;11029;47.820;10.534;2023-06-22T08:10:21;24.90;57.00
21734;DHT22;11029;47.820;10.534;2023-06-22T08:12:48;25.00;55.80
21734;DHT22;11029;47.820;10.534;2023-06-22T08:15:15;25.10;56.00
21734;DHT22;11029;47.820;10.534;2023-06-22T08:17:43;25.20;56.70
21734;DHT22;11029;47.820;10.534;2023-06-22T08:20:10;25.30;56.70
21734;DHT22;11029;47.820;10.534;2023-06-22T08:22:41;25.50;56.20
21734;DHT22;11029;47.820;10.534;2023-06-22T08:25:09;25.50;55.50
21734;DHT22;11029;47.820;10.534;2023-06-22T08:27:36;25.50;55.50
21734;DHT22;11029;47.820;10.534;2023-06-22T08:30:03;25.60;55.80
21734;DHT22;11029;47.820;10.534;2023-06-22T08:32:30;25.70;54.60
21734;DHT22;11029;47.820;10.534;2023-06-22T08:34:59;25.70;55.10
21734;DHT22;11029;47.820;10.534;2023-06-22T08:37:26;25.70;55.20
21734;DHT22;11029;47.820;10.534;2023-06-22T08:39:59;25.90;55.40
21734;DHT22;11029;47.820;10.534;2023-06-22T08:42:27;26.00;54.30
21734;DHT22;11029;47.820;10.534;2023-06-22T08:44:54;26.10;55.50
21734;DHT22;11029;47.820;10.534;2023-06-22T08:47:21;26.30;54.90
21734;DHT22;11029;47.820;10.534;2023-06-22T08:49:49;26.40;55.40
21734;DHT22;11029;47.820;10.534;2023-06-22T08:52:17;26.50;55.30
21734;DHT22;11029;47.820;10.534;2023-06-22T08:54:45;26.60;54.80
21734;DHT22;11029;47.820;10.534;2023-06-22T08:57:12;26.60;55.30
21734;DHT22;11029;47.820;10.534;2023-06-22T08:59:39;26.70;55.80
21734;DHT22;11029;47.820;10.534;2023-06-22T09:02:06;26.90;54.90
21734;DHT22;11029;47.820;10.534;2023-06-22T09:04:33;26.90;54.10
21734;DHT22;11029;47.820;10.534;2023-06-22T09:07:04;26.80;55.20
21734;DHT22;11029;47.820;10.534;2023-06-22T09:09:31;26.70;55.00
21734;DHT22;11029;47.820;10.534;2023-06-22T09:11:57;26.70;55.40
21734;DHT22;11029;47.820;10.534;2023-06-22T09:14:24;26.80;54.70
21734;DHT22;11029;47.820;10.534;2023-06-22T09:16:51;26.90;53.80
21734;DHT22;11029;47.820;10.534;2023-06-22T09:19:17;27.10;53.60
21734;DHT22;11029;47.820;10.534;2023-06-22T09:21:44;27.30;52.80
21734;DHT22;11029;47.820;10.534;2023-06-22T09:24:11;27.40;53.90
21734;DHT22;11029;47.820;10.534;2023-06-22T09:26:38;27.50;54.10
21734;DHT22;11029;47.820;10.534;2023-06-22T09:29:05;27.70;54.60
21734;DHT22;11029;47.820;10.534;2023-06-22T09:31:32;27.70;54.60
21734;DHT22;11029;47.820;10.534;2023-06-22T09:33:59;27.60;54.60
21734;DHT22;11029;47.820;10.534;2023-06-22T09:36:26;27.80;53.80
21734;DHT22;11029;47.820;10.534;2023-06-22T09:38:53;27.90;53.30
21734;DHT22;11029;47.820;10.534;2023-06-22T09:41:23;28.00;52.70
21734;DHT22;11029;47.820;10.534;2023-06-22T09:43:50;28.00;52.60
21734;DHT22;11029;47.820;10.534;2023-06-22T09:46:20;28.10;52.30
21734;DHT22;11029;47.820;10.534;2023-06-22T09:48:48;28.00;51.80
21734;DHT22;11029;47.820;10.534;2023-06-22T09:51:15;27.90;51.50
21734;DHT22;11029;47.820;10.534;2023-06-22T09:53:43;27.90;52.80
21734;DHT22;11029;47.820;10.534;2023-06-22T09:56:10;27.90;52.30
21734;DHT22;11029;47.820;10.534;2023-06-22T09:58:45;27.90;52.50
21734;DHT22;11029;47.820;10.534;2023-06-22T10:01:18;28.00;53.60
21734;DHT22;11029;47.820;10.534;2023-06-22T10:03:47;27.90;54.40
21734;DHT22;11029;47.820;10.534;2023-06-22T10:06:14;27.80;55.70
21734;DHT22;11029;47.820;10.534;2023-06-22T10:08:41;27.80;52.80
21734;DHT22;11029;47.820;10.534;2023-06-22T10:11:08;27.80;53.50
21734;DHT22;11029;47.820;10.534;2023-06-22T10:13:34;27.90;52.80
21734;DHT22;11029;47.820;10.534;2023-06-22T10:16:01;28.10;51.30
21734;DHT22;11029;47.820;10.534;2023-06-22T10:18:28;28.30;50.50
21734;DHT22;11029;47.820;10.534;2023-06-22T10:20:55;28.40;51.20
21734;DHT22;11029;47.820;10.534;2023-06-22T10:23:21;28.40;51.60
21734;DHT22;11029;47.820;10.534;2023-06-22T10:25:48;28.60;51.30
21734;DHT22;11029;47.820;10.534;2023-06-22T10:28:15;28.60;52.10
21734;DHT22;11029;47.820;10.534;2023-06-22T10:30:43;28.70;51.20
21734;DHT22;11029;47.820;10.534;2023-06-22T10:33:11;28.90;51.70
21734;DHT22;11029;47.820;10.534;2023-06-22T10:35:38;29.30;51.20
21734;DHT22;11029;47.820;10.534;2023-06-22T10:38:05;29.50;50.20
21734;DHT22;11029;47.820;10.534;2023-06-22T10:40:32;29.50;48.70
21734;DHT22;11029;47.820;10.534;2023-06-22T10:42:59;29.60;49.90
21734;DHT22;11029;47.820;10.534;2023-06-22T10:45:26;29.70;49.70
21734;DHT22;11029;47.820;10.534;2023-06-22T10:47:55;29.80;50.30
21734;DHT22;11029;47.820;10.534;2023-06-22T10:50:22;30.00;48.60
21734;DHT22;11029;47.820;10.534;2023-06-22T10:52:50;30.00;48.60
21734;DHT22;11029;47.820;10.534;2023-06-22T10:55:17;29.90;49.40
21734;DHT22;11029;47.820;10.534;2023-06-22T10:57:44;30.00;50.70
21734;DHT22;11029;47.820;10.534;2023-06-22T11:00:14;30.20;49.00
21734;DHT22;11029;47.820;10.534;2023-06-22T11:02:42;30.30;49.20
21734;DHT22;11029;47.820;10.534;2023-06-22T11:05:09;30.50;49.30
21734;DHT22;11029;47.820;10.534;2023-06-22T11:07:37;30.60;47.40
21734;DHT22;11029;47.820;10.534;2023-06-22T11:10:10;30.80;46.50
21734;DHT22;11029;47.820;10.534;2023-06-22T11:12:37;30.70;46.30
21734;DHT22;11029;47.820;10.534;2023-06-22T11:15:04;30.50;46.10
21734;DHT22;11029;47.820;10.534;2023-06-22T11:17:31;30.20;47.80
21734;DHT22;11029;47.820;10.534;2023-06-22T11:19:58;30.10;47.70
21734;DHT22;11029;47.820;10.534;2023-06-22T11:22:27;30.10;48.20
21734;DHT22;11029;47.820;10.534;2023-06-22T11:24:54;30.10;45.10
21734;DHT22;11029;47.820;10.534;2023-06-22T11:27:20;30.10;44.80
21734;DHT22;11029;47.820;10.534;2023-06-22T11:29:47;29.90;45.40
21734;DHT22;11029;47.820;10.534;2023-06-22T11:32:14;29.80;45.00
21734;DHT22;11029;47.820;10.534;2023-06-22T11:34:41;29.90;45.80
21734;DHT22;11029;47.820;10.534;2023-06-22T11:37:08;30.10;44.60
21734;DHT22;11029;47.820;10.534;2023-06-22T11:39:35;30.30;44.30
21734;DHT22;11029;47.820;10.534;2023-06-22T11:42:09;30.60;44.10
21734;DHT22;11029;47.820;10.534;2023-06-22T11:44:36;30.50;41.50
21734;DHT22;11029;47.820;10.534;2023-06-22T11:47:03;30.50;42.00
21734;DHT22;11029;47.820;10.534;2023-06-22T11:49:31;30.50;42.40
21734;DHT22;11029;47.820;10.534;2023-06-22T11:51:58;30.50;42.40
21734;DHT22;11029;47.820;10.534;2023-06-22T11:54:25;30.40;42.60
21734;DHT22;11029;47.820;10.534;2023-06-22T11:56:52;30.50;44.60
21734;DHT22;11029;47.820;10.534;2023-06-22T11:59:19;30.30;45.50
21734;DHT22;11029;47.820;10.534;2023-06-22T12:01:47;30.30;45.10
21734;DHT22;11029;47.820;10.534;2023-06-22T12:04:15;30.20;44.50
21734;DHT22;11029;47.820;10.534;2023-06-22T12:06:41;30.20;44.10
21734;DHT22;11029;47.820;10.534;2023-06-22T12:09:10;30.40;43.10
21734;DHT22;11029;47.820;10.534;2023-06-22T12:11:37;30.40;43.90
21734;DHT22;11029;47.820;10.534;2023-06-22T12:14:04;30.50;43.30
21734;DHT22;11029;47.820;10.534;2023-06-22T12:16:31;30.80;43.70
21734;DHT22;11029;47.820;10.534;2023-06-22T12:18:57;31.10;43.60
21734;DHT22;11029;47.820;10.534;2023-06-22T12:21:24;31.00;44.00
21734;DHT22;11029;47.820;10.534;2023-06-22T12:23:51;30.70;43.80
21734;DHT22;11029;47.820;10.534;2023-06-22T12:26:18;30.60;44.40
21734;DHT22;11029;47.820;10.534;2023-06-22T12:28:45;30.50;45.10
21734;DHT22;11029;47.820;10.534;2023-06-22T12:31:12;30.30;44.20
21734;DHT22;11029;47.820;10.534;2023-06-22T12:33:39;30.20;43.60
21734;DHT22;11029;47.820;10.534;2023-06-22T12:36:06;29.90;44.00
21734;DHT22;11029;47.820;10.534;2023-06-22T12:38:33;30.00;44.20
21734;DHT22;11029;47.820;10.534;2023-06-22T12:41:00;30.00;43.20
21734;DHT22;11029;47.820;10.534;2023-06-22T12:43:26;29.90;42.60
21734;DHT22;11029;47.820;10.534;2023-06-22T12:45:53;30.00;41.80
21734;DHT22;11029;47.820;10.534;2023-06-22T12:48:22;30.20;41.80
21734;DHT22;11029;47.820;10.534;2023-06-22T12:50:49;30.30;41.40
21734;DHT22;11029;47.820;10.534;2023-06-22T12:53:16;30.30;41.40
21734;DHT22;11029;47.820;10.534;2023-06-22T12:55:42;30.20;42.00
21734;DHT22;11029;47.820;10.534;2023-06-22T12:58:09;30.20;41.20
21734;DHT22;11029;47.820;10.534;2023-06-22T13:00:38;30.20;41.20
21734;DHT22;11029;47.820;10.534;2023-06-22T13:03:05;30.30;39.10
21734;DHT22;11029;47.820;10.534;2023-06-22T13:05:32;30.50;39.00
21734;DHT22;11029;47.820;10.534;2023-06-22T13:08:01;30.60;39.20
21734;DHT22;11029;47.820;10.534;2023-06-22T13:10:29;30.60;39.30
21734;DHT22;11029;47.820;10.534;2023-06-22T13:12:57;30.70;39.50
21734;DHT22;11029;47.820;10.534;2023-06-22T13:15:28;30.90;39.00
21734;DHT22;11029;47.820;10.534;2023-06-22T13:17:56;31.10;39.00
21734;DHT22;11029;47.820;10.534;2023-06-22T13:20:23;31.40;37.90
21734;DHT22;11029;47.820;10.534;2023-06-22T13:22:49;31.50;38.30
21734;DHT22;11029;47.820;10.534;2023-06-22T13:25:16;31.90;38.30
21734;DHT22;11029;47.820;10.534;2023-06-22T13:27:45;32.10;38.80
21734;DHT22;11029;47.820;10.534;2023-06-22T13:30:13;32.20;38.30
21734;DHT22;11029;47.820;10.534;2023-06-22T13:32:41;32.10;38.00
21734;DHT22;11029;47.820;10.534;2023-06-22T13:35:10;32.40;38.50
21734;DHT22;11029;47.820;10.534;2023-06-22T13:37:37;32.30;38.90
21734;DHT22;11029;47.820;10.534;2023-06-22T13:40:05;32.10;38.20
21734;DHT22;11029;47.820;10.534;2023-06-22T13:42:33;32.00;38.80
21734;DHT22;11029;47.820;10.534;2023-06-22T13:45:00;32.20;40.10
21734;DHT22;11029;47.820;10.534;2023-06-22T13:47:27;31.90;39.80
21734;DHT22;11029;47.820;10.534;2023-06-22T13:49:56;31.80;40.70
21734;DHT22;11029;47.820;10.534;2023-06-22T13:52:24;32.00;39.20
21734;DHT22;11029;47.820;10.534;2023-06-22T13:54:51;32.10;39.50
21734;DHT22;11029;47.820;10.534;2023-06-22T13:57:18;32.30;39.90
21734;DHT22;11029;47.820;10.534;2023-06-22T13:59:44;32.20;40.10
21734;DHT22;11029;47.820;10.534;2023-06-22T14:02:11;31.80;40.90
21734;DHT22;11029;47.820;10.534;2023-06-22T14:04:38;31.60;40.50
21734;DHT22;11029;47.820;10.534;2023-06-22T14:07:05;31.50;40.30
21734;DHT22;11029;47.820;10.534;2023-06-22T14:09:32;32.00;40.50
21734;DHT22;11029;47.820;10.534;2023-06-22T14:12:03;32.50;39.30
21734;DHT22;11029;47.820;10.534;2023-06-22T14:14:31;32.60;38.10
21734;DHT22;11029;47.820;10.534;2023-06-22T14:16:58;32.60;38.60
21734;DHT22;11029;47.820;10.534;2023-06-22T14:19:24;32.50;38.40
21734;DHT22;11029;47.820;10.534;2023-06-22T14:21:51;32.50;38.60
21734;DHT22;11029;47.820;10.534;2023-06-22T14:24:18;32.30;39.30
21734;DHT22;11029;47.820;10.534;2023-06-22T14:26:46;32.10;38.20
21734;DHT22;11029;47.820;10.534;2023-06-22T14:29:13;32.20;39.60
21734;DHT22;11029;47.820;10.534;2023-06-22T14:31:40;32.50;39.40
21734;DHT22;11029;47.820;10.534;2023-06-22T14:34:07;33.00;39.10
21734;DHT22;11029;47.820;10.534;2023-06-22T14:36:33;33.10;37.80
21734;DHT22;11029;47.820;10.534;2023-06-22T14:39:00;32.80;37.80
21734;DHT22;11029;47.820;10.534;2023-06-22T14:41:28;32.90;37.70
21734;DHT22;11029;47.820;10.534;2023-06-22T14:43:56;33.10;37.50
21734;DHT22;11029;47.820;10.534;2023-06-22T14:46:23;33.30;38.40
21734;DHT22;11029;47.820;10.534;2023-06-22T14:48:50;33.10;37.50
21734;DHT22;11029;47.820;10.534;2023-06-22T14:51:16;33.10;37.90
21734;DHT22;11029;47.820;10.534;2023-06-22T14:53:44;32.40;39.50
21734;DHT22;11029;47.820;10.534;2023-06-22T14:56:12;32.10;40.80
21734;DHT22;11029;47.820;10.534;2023-06-22T14:58:40;31.80;40.40
21734;DHT22;11029;47.820;10.534;2023-06-22T15:01:07;31.80;40.10
21734;DHT22;11029;47.820;10.534;2023-06-22T15:03:35;31.60;41.60
21734;DHT22;11029;47.820;10.534;2023-06-22T15:06:03;31.70;40.80
21734;DHT22;11029;47.820;10.534;2023-06-22T15:08:30;31.40;42.20
21734;DHT22;11029;47.820;10.534;2023-06-22T15:11:00;31.00;43.50
21734;DHT22;11029;47.820;10.534;2023-06-22T15:13:30;30.70;43.90
21734;DHT22;11029;47.820;10.534;2023-06-22T15:16:01;30.30;45.80
21734;DHT22;11029;47.820;10.534;2023-06-22T15:18:29;30.20;46.80
21734;DHT22;11029;47.820;10.534;2023-06-22T15:20:56;29.90;47.20
21734;DHT22;11029;47.820;10.534;2023-06-22T15:23:25;29.50;48.50
21734;DHT22;11029;47.820;10.534;2023-06-22T15:25:52;29.70;49.00